Time;durP1;ratioP1;P1;durP2;ratioP2;P2;SDS_P1;SDS_P2;PMS_P1;PMS_P2;Temp;Humidity;BMP_temperature;BMP_pressure;BME280_temperature;BME280_humidity;BME280_pressure;Samples;Min_cycle;Max_cycle;Signal;HPM_P1;HPM_P2
2023/12/03 00:00:26;;;;;;;194.77;52.67;;;;;;;;;;5019422;28;20184;-43
2023/12/03 00:02:53;;;;;;;197.95;53.25;;;;;;;;;;5012250;28;20403;-43
2023/12/03 00:05:19;;;;;;;194.65;51.97;;;;;;;;;;5011324;28;20374;-43
2023/12/03 00:07:45;;;;;;;193.75;51.17;;;;;;;;;;5014267;28;20648;-43
2023/12/03 00:10:11;;;;;;;195.52;52.35;;;;;;;;;;5013346;28;20183;-44
2023/12/03 00:12:38;;;;;;;194.18;51.70;;;;;;;;;;5017677;28;20188;-43
2023/12/03 00:15:05;;;;;;;196.50;52.20;;;;;;;;;;5018735;28;20203;-43
2023/12/03 00:17:31;;;;;;;196.25;53.20;;;;;;;;;;5011502;28;20654;-43
2023/12/03 00:19:57;;;;;;;195.80;51.70;;;;;;;;;;5014243;28;20251;-43
2023/12/03 00:22:23;;;;;;;195.37;52.87;;;;;;;;;;5015414;28;20407;-44
2023/12/03 00:24:49;;;;;;;195.25;51.70;;;;;;;;;;5015076;28;20498;-43
2023/12/03 00:27:15;;;;;;;195.03;52.47;;;;;;;;;;5017037;28;20180;-43
2023/12/03 00:29:41;;;;;;;195.23;52.75;;;;;;;;;;5021041;28;20438;-44
2023/12/03 00:32:07;;;;;;;194.47;52.77;;;;;;;;;;5015190;28;20200;-43
2023/12/03 00:34:33;;;;;;;200.20;55.97;;;;;;;;;;5014955;28;20403;-44
2023/12/03 00:36:59;;;;;;;193.67;51.80;;;;;;;;;;5015026;28;20184;-43
2023/12/03 00:39:24;;;;;;;196.47;53.60;;;;;;;;;;5015217;28;20446;-43
2023/12/03 00:41:50;;;;;;;194.27;52.80;;;;;;;;;;5015159;28;20426;-43
2023/12/03 00:44:18;;;;;;;197.30;54.03;;;;;;;;;;5014630;28;20411;-44
2023/12/03 00:46:44;;;;;;;195.30;52.03;;;;;;;;;;5014821;28;20655;-44
2023/12/03 00:49:10;;;;;;;195.03;52.17;;;;;;;;;;5014911;28;20192;-43
2023/12/03 00:51:36;;;;;;;192.98;51.40;;;;;;;;;;5014870;28;20943;-43
2023/12/03 00:54:02;;;;;;;193.73;51.60;;;;;;;;;;5020801;28;20322;-43
2023/12/03 00:56:28;;;;;;;193.45;52.17;;;;;;;;;;5022071;28;20196;-44
2023/12/03 00:58:54;;;;;;;195.23;52.57;;;;;;;;;;5014671;28;20177;-43
2023/12/03 01:01:20;;;;;;;193.13;51.90;;;;;;;;;;5017330;28;20410;-43
2023/12/03 01:03:46;;;;;;;195.50;52.75;;;;;;;;;;5014627;28;20414;-43
2023/12/03 01:06:12;;;;;;;194.30;51.72;;;;;;;;;;5014325;28;20204;-43
2023/12/03 01:08:38;;;;;;;193.87;51.40;;;;;;;;;;5020541;28;20180;-44
2023/12/03 01:11:07;;;;;;;196.43;53.40;;;;;;;;;;5022057;28;20913;-43
2023/12/03 01:13:33;;;;;;;195.63;53.15;;;;;;;;;;5014285;28;20453;-43
2023/12/03 01:15:59;;;;;;;195.93;52.67;;;;;;;;;;5014089;28;20197;-44
2023/12/03 01:18:25;;;;;;;196.17;53.40;;;;;;;;;;5018604;28;20174;-43
2023/12/03 01:20:51;;;;;;;194.03;51.20;;;;;;;;;;5014719;28;20439;-43
2023/12/03 01:23:19;;;;;;;196.27;53.03;;;;;;;;;;5014247;28;20407;-43
2023/12/03 01:25:44;;;;;;;195.25;53.95;;;;;;;;;;5013931;28;20932;-43
2023/12/03 01:28:10;;;;;;;198.00;53.00;;;;;;;;;;5014117;28;20179;-44
2023/12/03 01:30:36;;;;;;;193.25;50.80;;;;;;;;;;5013869;28;20184;-43
2023/12/03 01:33:02;;;;;;;195.07;51.20;;;;;;;;;;5018221;28;20228;-43
2023/12/03 01:35:28;;;;;;;195.93;53.30;;;;;;;;;;5013874;28;20204;-43
2023/12/03 01:37:54;;;;;;;195.27;53.40;;;;;;;;;;5014029;28;20180;-43
2023/12/03 01:40:20;;;;;;;195.37;52.70;;;;;;;;;;5014038;28;20173;-43
2023/12/03 01:42:46;;;;;;;197.67;53.70;;;;;;;;;;5014808;28;20411;-43
2023/12/03 01:45:12;;;;;;;195.40;51.67;;;;;;;;;;5015106;28;20451;-43
2023/12/03 01:47:38;;;;;;;196.13;52.20;;;;;;;;;;5013770;28;20293;-43
2023/12/03 01:50:11;;;;;;;193.20;51.78;;;;;;;;;;5013763;28;20423;-43
2023/12/03 01:52:38;;;;;;;193.90;51.47;;;;;;;;;;5013814;28;20202;-43
2023/12/03 01:55:04;;;;;;;193.05;51.47;;;;;;;;;;5013261;28;20205;-43
2023/12/03 01:57:30;;;;;;;191.43;50.30;;;;;;;;;;5016097;28;20176;-43
2023/12/03 01:59:56;;;;;;;193.90;51.53;;;;;;;;;;5013687;28;20178;-44
2023/12/03 02:02:22;;;;;;;194.73;52.33;;;;;;;;;;5013652;28;20179;-43
2023/12/03 02:04:48;;;;;;;195.77;52.60;;;;;;;;;;5017608;28;20481;-43
2023/12/03 02:07:14;;;;;;;196.63;53.90;;;;;;;;;;5020101;28;20188;-43
2023/12/03 02:09:41;;;;;;;196.00;51.73;;;;;;;;;;5012942;28;20414;-44
2023/12/03 02:12:08;;;;;;;197.95;53.67;;;;;;;;;;5015781;28;20455;-44
2023/12/03 02:14:34;;;;;;;201.98;56.97;;;;;;;;;;5017167;28;20222;-44
2023/12/03 02:17:00;;;;;;;195.27;52.70;;;;;;;;;;5018853;28;20173;-43
2023/12/03 02:19:27;;;;;;;194.70;51.60;;;;;;;;;;5013339;28;20416;-43
2023/12/03 02:21:53;;;;;;;198.48;53.65;;;;;;;;;;5012979;28;20408;-44
2023/12/03 02:24:19;;;;;;;194.90;52.23;;;;;;;;;;5031497;28;20207;-43
2023/12/03 02:26:46;;;;;;;194.87;51.37;;;;;;;;;;5018383;28;20431;-44
2023/12/03 02:29:11;;;;;;;195.80;50.85;;;;;;;;;;5023911;28;20412;-44
2023/12/03 02:31:37;;;;;;;195.83;51.50;;;;;;;;;;5026189;28;20195;-44
2023/12/03 02:34:10;;;;;;;199.57;53.97;;;;;;;;;;5015538;28;20411;-44
2023/12/03 02:36:37;;;;;;;193.95;50.53;;;;;;;;;;5032587;28;20800;-44
2023/12/03 02:39:03;;;;;;;189.52;51.22;;;;;;;;;;5013439;28;20220;-44
2023/12/03 02:41:29;;;;;;;184.40;50.70;;;;;;;;;;5027521;28;20603;-44
2023/12/03 02:43:55;;;;;;;185.73;52.13;;;;;;;;;;5021409;28;20267;-44
2023/12/03 02:46:21;;;;;;;185.73;50.28;;;;;;;;;;5019707;28;20188;-44
2023/12/03 02:48:47;;;;;;;185.80;51.72;;;;;;;;;;5029340;28;20564;-44
2023/12/03 02:51:13;;;;;;;186.13;51.33;;;;;;;;;;5012926;28;20167;-44
2023/12/03 02:53:39;;;;;;;187.17;51.03;;;;;;;;;;5031452;28;20211;-44
2023/12/03 02:56:07;;;;;;;187.90;50.90;;;;;;;;;;5017145;28;20520;-44
2023/12/03 02:58:33;;;;;;;185.77;50.10;;;;;;;;;;5023824;28;20188;-44
2023/12/03 03:00:59;;;;;;;187.88;51.47;;;;;;;;;;5025351;28;20177;-44
2023/12/03 03:03:25;;;;;;;186.88;50.65;;;;;;;;;;5012829;28;20192;-44
2023/12/03 03:05:51;;;;;;;186.77;51.00;;;;;;;;;;5012337;28;20191;-44
2023/12/03 03:08:17;;;;;;;188.73;51.03;;;;;;;;;;4993777;28;20483;-43
2023/12/03 03:10:43;;;;;;;187.27;50.00;;;;;;;;;;5007297;28;20498;-44
2023/12/03 03:13:09;;;;;;;187.00;49.67;;;;;;;;;;5001980;28;20471;-44
2023/12/03 03:15:35;;;;;;;188.63;50.37;;;;;;;;;;4998836;28;20433;-44
2023/12/03 03:18:01;;;;;;;190.38;50.97;;;;;;;;;;5009888;28;20908;-44
2023/12/03 03:20:28;;;;;;;190.40;49.53;;;;;;;;;;4992764;28;20594;-44
2023/12/03 03:22:54;;;;;;;189.88;50.28;;;;;;;;;;5010673;28;20184;-44
2023/12/03 03:25:19;;;;;;;189.70;50.95;;;;;;;;;;4997754;28;20230;-44
2023/12/03 03:27:45;;;;;;;185.80;49.55;;;;;;;;;;5002771;28;20188;-43
2023/12/03 03:30:12;;;;;;;188.20;49.65;;;;;;;;;;5006361;28;20181;-44
2023/12/03 03:32:38;;;;;;;188.52;50.50;;;;;;;;;;4994338;28;20800;-44
2023/12/03 03:35:04;;;;;;;188.07;50.07;;;;;;;;;;5011822;28;20278;-44
2023/12/03 03:37:30;;;;;;;187.55;49.60;;;;;;;;;;4994404;28;20904;-44
2023/12/03 03:39:56;;;;;;;186.32;48.80;;;;;;;;;;5005900;28;20176;-44
2023/12/03 03:42:22;;;;;;;189.27;50.50;;;;;;;;;;5009924;28;20172;-44
2023/12/03 03:44:48;;;;;;;189.65;50.60;;;;;;;;;;5011191;28;20702;-44
2023/12/03 03:47:14;;;;;;;189.83;50.30;;;;;;;;;;5010399;28;20180;-44
2023/12/03 03:49:40;;;;;;;199.10;51.53;;;;;;;;;;4992408;28;20416;-44
2023/12/03 03:52:06;;;;;;;198.35;50.97;;;;;;;;;;5009256;28;20203;-44
2023/12/03 03:54:33;;;;;;;200.93;54.17;;;;;;;;;;4998412;28;20625;-44
2023/12/03 03:56:59;;;;;;;195.35;49.10;;;;;;;;;;5001212;28;20190;-43
2023/12/03 03:59:25;;;;;;;195.57;49.33;;;;;;;;;;5006952;28;20185;-44
2023/12/03 04:01:52;;;;;;;198.73;52.15;;;;;;;;;;4993245;28;20417;-44
2023/12/03 04:04:17;;;;;;;199.70;51.13;;;;;;;;;;5011772;28;20259;-44
2023/12/03 04:06:44;;;;;;;194.77;49.93;;;;;;;;;;4994866;28;20684;-44
2023/12/03 04:09:12;;;;;;;196.88;50.50;;;;;;;;;;5004824;28;20882;-44
2023/12/03 04:11:39;;;;;;;197.90;51.25;;;;;;;;;;5002751;28;20536;-45
2023/12/03 04:14:06;;;;;;;196.30;51.33;;;;;;;;;;4997081;28;20250;-44
2023/12/03 04:16:32;;;;;;;199.80;51.72;;;;;;;;;;5010285;28;20184;-44
2023/12/03 04:18:58;;;;;;;195.80;50.83;;;;;;;;;;4992582;28;20166;-43
2023/12/03 04:21:24;;;;;;;197.05;49.72;;;;;;;;;;5008897;28;20411;-44
2023/12/03 04:23:50;;;;;;;197.27;50.30;;;;;;;;;;4998837;28;20179;-43
2023/12/03 04:26:16;;;;;;;196.30;49.63;;;;;;;;;;5000297;28;20200;-43
2023/12/03 04:28:42;;;;;;;194.53;49.40;;;;;;;;;;5007005;28;20560;-44
2023/12/03 04:31:19;;;;;;;198.73;51.78;;;;;;;;;;4992534;28;20411;-43
2023/12/03 04:33:45;;;;;;;198.48;51.10;;;;;;;;;;5011628;28;20339;-43
2023/12/03 04:36:11;;;;;;;197.30;51.08;;;;;;;;;;4993510;28;20201;-44
2023/12/03 04:38:37;;;;;;;185.40;49.30;;;;;;;;;;5005760;28;20596;-44
2023/12/03 04:41:03;;;;;;;195.77;49.80;;;;;;;;;;5002067;28;20232;-44
2023/12/03 04:43:29;;;;;;;195.95;49.30;;;;;;;;;;5007804;28;20415;-44
2023/12/03 04:45:55;;;;;;;198.67;51.93;;;;;;;;;;5009445;28;20192;-44
2023/12/03 04:48:22;;;;;;;196.77;49.77;;;;;;;;;;4991926;28;20436;-44
2023/12/03 04:50:48;;;;;;;197.52;50.63;;;;;;;;;;5009061;28;20538;-44
2023/12/03 04:53:14;;;;;;;197.30;51.33;;;;;;;;;;4998042;28;20676;-44
2023/12/03 04:55:40;;;;;;;199.67;52.80;;;;;;;;;;4991896;28;20261;-44
2023/12/03 04:58:06;;;;;;;186.05;49.50;;;;;;;;;;4996922;28;20414;-44
2023/12/03 05:00:32;;;;;;;197.67;50.17;;;;;;;;;;5010096;28;20242;-44
2023/12/03 05:02:58;;;;;;;197.45;49.28;;;;;;;;;;4991889;28;20877;-44
2023/12/03 05:05:24;;;;;;;187.23;50.20;;;;;;;;;;5009546;28;20323;-44
2023/12/03 05:07:50;;;;;;;174.80;48.50;;;;;;;;;;5001943;28;20420;-44
2023/12/03 05:10:16;;;;;;;163.70;47.60;;;;;;;;;;5003844;28;20419;-44
2023/12/03 05:12:42;;;;;;;165.43;47.38;;;;;;;;;;5009940;28;20459;-44
2023/12/03 05:15:09;;;;;;;163.75;49.10;;;;;;;;;;4995190;28;20267;-44
2023/12/03 05:17:34;;;;;;;169.45;48.15;;;;;;;;;;5014724;28;20176;-44
2023/12/03 05:20:00;;;;;;;163.77;48.90;;;;;;;;;;4998212;28;20227;-44
2023/12/03 05:22:26;;;;;;;162.07;48.27;;;;;;;;;;5007001;28;20426;-44
2023/12/03 05:24:52;;;;;;;151.50;46.07;;;;;;;;;;5006010;28;20434;-43
2023/12/03 05:27:18;;;;;;;161.05;53.35;;;;;;;;;;4998809;28;20415;-44
2023/12/03 05:29:45;;;;;;;150.03;47.03;;;;;;;;;;5014114;28;20172;-44
2023/12/03 05:32:11;;;;;;;137.82;44.90;;;;;;;;;;4994855;28;20869;-44
2023/12/03 05:34:37;;;;;;;143.40;47.10;;;;;;;;;;5010227;28;20172;-44
2023/12/03 05:37:04;;;;;;;145.95;45.95;;;;;;;;;;5002418;28;20412;-44
2023/12/03 05:39:30;;;;;;;144.75;45.05;;;;;;;;;;5002341;28;20224;-44
2023/12/03 05:41:56;;;;;;;166.60;48.47;;;;;;;;;;5013963;28;20172;-44
2023/12/03 05:44:22;;;;;;;168.73;54.35;;;;;;;;;;5013809;28;20592;-44
2023/12/03 05:46:47;;;;;;;164.30;48.38;;;;;;;;;;4994803;28;20193;-44
2023/12/03 05:49:13;;;;;;;157.20;47.27;;;;;;;;;;5009556;28;20326;-44
2023/12/03 05:51:45;;;;;;;160.27;46.53;;;;;;;;;;5002552;28;20416;-43
2023/12/03 05:54:11;;;;;;;148.60;45.92;;;;;;;;;;5002283;28;20419;-44
2023/12/03 05:56:37;;;;;;;159.20;47.38;;;;;;;;;;5009545;28;20207;-44
2023/12/03 05:59:03;;;;;;;158.90;48.73;;;;;;;;;;4994389;28;20169;-44
2023/12/03 06:01:30;;;;;;;148.73;47.30;;;;;;;;;;5013650;28;20399;-44
2023/12/03 06:03:56;;;;;;;140.43;46.13;;;;;;;;;;4998669;28;20927;-43
2023/12/03 06:06:22;;;;;;;143.27;46.42;;;;;;;;;;5005129;28;20218;-44
2023/12/03 06:08:48;;;;;;;147.10;47.88;;;;;;;;;;5006051;28;20703;-43
2023/12/03 06:11:14;;;;;;;142.87;46.57;;;;;;;;;;4997378;28;20200;-44
2023/12/03 06:13:40;;;;;;;150.05;47.13;;;;;;;;;;5013558;28;20938;-43
2023/12/03 06:16:07;;;;;;;151.02;47.30;;;;;;;;;;4993197;28;20197;-44
2023/12/03 06:18:33;;;;;;;169.15;48.95;;;;;;;;;;5008667;28;20176;-44
2023/12/03 06:20:59;;;;;;;198.67;50.77;;;;;;;;;;5002227;28;20651;-43
2023/12/03 06:23:25;;;;;;;198.60;51.23;;;;;;;;;;5000509;28;20411;-44
2023/12/03 06:25:50;;;;;;;199.98;51.95;;;;;;;;;;5009859;28;20515;-43
2023/12/03 06:28:16;;;;;;;198.37;51.13;;;;;;;;;;4993772;28;20168;-44
2023/12/03 06:30:42;;;;;;;198.00;50.90;;;;;;;;;;5012181;28;20417;-44
2023/12/03 06:33:08;;;;;;;200.35;52.13;;;;;;;;;;4998644;28;20201;-43
2023/12/03 06:35:34;;;;;;;200.13;52.47;;;;;;;;;;5003869;28;20235;-43
2023/12/03 06:38:00;;;;;;;195.27;52.65;;;;;;;;;;5006579;28;20505;-43
2023/12/03 06:40:26;;;;;;;190.70;49.50;;;;;;;;;;4995796;28;20183;-43
2023/12/03 06:42:52;;;;;;;193.45;51.63;;;;;;;;;;5012998;28;20407;-44
2023/12/03 06:45:18;;;;;;;193.93;51.07;;;;;;;;;;5012165;28;20306;-44
2023/12/03 06:47:44;;;;;;;192.13;49.90;;;;;;;;;;4998693;28;20451;-43
2023/12/03 06:50:10;;;;;;;191.17;50.70;;;;;;;;;;5003075;28;20432;-44
2023/12/03 06:52:36;;;;;;;191.23;51.07;;;;;;;;;;5006740;28;20463;-43
2023/12/03 06:55:02;;;;;;;192.77;52.60;;;;;;;;;;4994762;28;20495;-43
2023/12/03 06:57:28;;;;;;;201.25;53.30;;;;;;;;;;5012777;28;20174;-44
2023/12/03 06:59:54;;;;;;;197.17;53.67;;;;;;;;;;4994606;28;20652;-44
2023/12/03 07:02:20;;;;;;;161.17;49.83;;;;;;;;;;5006067;28;20921;-44
2023/12/03 07:04:46;;;;;;;164.90;50.20;;;;;;;;;;5002042;28;20408;-44
2023/12/03 07:07:12;;;;;;;165.40;48.83;;;;;;;;;;4997726;28;20427;-44
2023/12/03 07:09:38;;;;;;;168.20;51.67;;;;;;;;;;5010591;28;20435;-43
2023/12/03 07:12:04;;;;;;;168.07;49.50;;;;;;;;;;4992254;28;20455;-43
2023/12/03 07:14:30;;;;;;;179.38;57.70;;;;;;;;;;5008999;28;20419;-43
2023/12/03 07:16:56;;;;;;;183.93;54.47;;;;;;;;;;4998642;28;20565;-43
2023/12/03 07:19:22;;;;;;;198.63;52.83;;;;;;;;;;5000856;28;20183;-43
2023/12/03 07:21:48;;;;;;;200.23;54.97;;;;;;;;;;5006858;28;20423;-44
2023/12/03 07:24:14;;;;;;;197.93;52.60;;;;;;;;;;4992811;28;20404;-44
2023/12/03 07:26:43;;;;;;;194.57;52.03;;;;;;;;;;5011595;28;20526;-43
2023/12/03 07:29:09;;;;;;;200.15;54.83;;;;;;;;;;4994424;28;20412;-43
2023/12/03 07:31:34;;;;;;;199.00;54.17;;;;;;;;;;5004741;28;20306;-44
2023/12/03 07:34:00;;;;;;;202.47;56.03;;;;;;;;;;5002679;28;20474;-43
2023/12/03 07:36:26;;;;;;;198.60;53.30;;;;;;;;;;4996395;28;20434;-43
2023/12/03 07:38:52;;;;;;;199.45;54.22;;;;;;;;;;5010948;28;20407;-44
2023/12/03 07:41:18;;;;;;;197.43;53.03;;;;;;;;;;4992223;28;20169;-43
2023/12/03 07:43:44;;;;;;;197.73;51.87;;;;;;;;;;5010191;28;20884;-44
2023/12/03 07:46:16;;;;;;;199.45;54.97;;;;;;;;;;4999016;28;20876;-43
2023/12/03 07:48:42;;;;;;;201.45;55.50;;;;;;;;;;5000601;28;20880;-44
2023/12/03 07:51:11;;;;;;;199.30;54.10;;;;;;;;;;5006430;28;20184;-44
2023/12/03 07:53:37;;;;;;;199.80;53.15;;;;;;;;;;4992928;28;20451;-44
2023/12/03 07:56:03;;;;;;;202.68;56.70;;;;;;;;;;5010531;28;20767;-44
2023/12/03 07:58:29;;;;;;;199.15;53.60;;;;;;;;;;5007340;28;20180;-44
2023/12/03 08:00:55;;;;;;;201.52;55.28;;;;;;;;;;5011221;28;20549;-43
2023/12/03 08:03:21;;;;;;;198.52;53.88;;;;;;;;;;5011159;28;20562;-44
2023/12/03 08:05:47;;;;;;;201.17;55.97;;;;;;;;;;5011077;28;20208;-43
2023/12/03 08:08:13;;;;;;;181.20;51.90;;;;;;;;;;5011782;28;20930;-44
2023/12/03 08:10:39;;;;;;;192.35;53.90;;;;;;;;;;5011157;28;20417;-44
2023/12/03 08:13:05;;;;;;;199.63;60.13;;;;;;;;;;5010800;28;20286;-43
2023/12/03 08:15:31;;;;;;;185.17;58.80;;;;;;;;;;5010769;28;20436;-43
2023/12/03 08:17:57;;;;;;;182.18;57.83;;;;;;;;;;5010892;28;20420;-43
2023/12/03 08:20:23;;;;;;;181.70;57.07;;;;;;;;;;5011581;28;20176;-43
2023/12/03 08:22:49;;;;;;;180.63;57.10;;;;;;;;;;5011543;28;20440;-44
2023/12/03 08:25:15;;;;;;;177.40;56.15;;;;;;;;;;5010904;28;20200;-44
2023/12/03 08:27:41;;;;;;;180.63;56.60;;;;;;;;;;5011373;28;20533;-44
2023/12/03 08:30:07;;;;;;;177.00;55.88;;;;;;;;;;5011539;28;20178;-43
2023/12/03 08:32:33;;;;;;;179.13;55.25;;;;;;;;;;5004678;28;20689;-43
2023/12/03 08:34:59;;;;;;;175.82;53.70;;;;;;;;;;5011210;28;20192;-44
2023/12/03 08:37:25;;;;;;;178.60;55.33;;;;;;;;;;5011346;28;20179;-43
2023/12/03 08:39:51;;;;;;;176.00;55.38;;;;;;;;;;5011952;28;20515;-43
2023/12/03 08:42:19;;;;;;;178.45;55.85;;;;;;;;;;5015160;28;20184;-43
2023/12/03 08:44:45;;;;;;;178.90;56.30;;;;;;;;;;5014899;28;20235;-43
2023/12/03 08:47:11;;;;;;;179.57;56.93;;;;;;;;;;5014765;28;20172;-43
2023/12/03 08:49:37;;;;;;;174.45;55.97;;;;;;;;;;5015108;28;20403;-44
2023/12/03 08:52:03;;;;;;;177.10;55.92;;;;;;;;;;5014701;28;20629;-43
2023/12/03 08:54:30;;;;;;;178.80;58.90;;;;;;;;;;5014607;28;20199;-43
2023/12/03 08:56:55;;;;;;;173.98;54.97;;;;;;;;;;5014715;28;20192;-43
2023/12/03 08:59:24;;;;;;;177.37;56.13;;;;;;;;;;5015005;28;20181;-43
2023/12/03 09:01:49;;;;;;;177.80;57.90;;;;;;;;;;5004991;28;20435;-43
2023/12/03 09:04:15;;;;;;;179.27;58.80;;;;;;;;;;5014452;28;20200;-44
2023/12/03 09:06:42;;;;;;;177.57;58.90;;;;;;;;;;5014820;28;20546;-43
2023/12/03 09:09:08;;;;;;;179.48;56.60;;;;;;;;;;5034025;28;20463;-44
2023/12/03 09:11:35;;;;;;;181.13;58.63;;;;;;;;;;5017578;28;20251;-45
2023/12/03 09:14:02;;;;;;;185.93;57.83;;;;;;;;;;5027425;28;20206;-44
2023/12/03 09:16:28;;;;;;;189.48;62.17;;;;;;;;;;5025145;28;20207;-43
2023/12/03 09:18:55;;;;;;;185.43;59.90;;;;;;;;;;5019327;28;20570;-44
2023/12/03 09:21:23;;;;;;;188.93;61.85;;;;;;;;;;5033424;28;20400;-44
2023/12/03 09:23:49;;;;;;;191.48;62.33;;;;;;;;;;5014559;28;20182;-45
2023/12/03 09:26:16;;;;;;;198.07;62.50;;;;;;;;;;5030937;28;20202;-43
2023/12/03 09:28:42;;;;;;;199.68;65.93;;;;;;;;;;5021214;28;20422;-45
2023/12/03 09:31:08;;;;;;;203.15;67.43;;;;;;;;;;5023063;28;20554;-45
2023/12/03 09:33:34;;;;;;;203.70;69.32;;;;;;;;;;5029225;28;20598;-44
2023/12/03 09:36:00;;;;;;;199.77;68.22;;;;;;;;;;5014405;28;20192;-44
2023/12/03 09:38:26;;;;;;;199.37;67.57;;;;;;;;;;5034147;28;20695;-44
2023/12/03 09:40:53;;;;;;;203.93;68.07;;;;;;;;;;5017397;28;20764;-45
2023/12/03 09:43:20;;;;;;;204.43;68.28;;;;;;;;;;5026562;28;20554;-44
2023/12/03 09:45:47;;;;;;;205.70;71.43;;;;;;;;;;5024794;28;20199;-44
2023/12/03 09:48:16;;;;;;;202.48;65.97;;;;;;;;;;5018540;28;20685;-43
2023/12/03 09:50:44;;;;;;;203.23;68.35;;;;;;;;;;5032444;28;20210;-44
2023/12/03 09:53:11;;;;;;;199.80;64.95;;;;;;;;;;5014225;28;20199;-44
2023/12/03 09:55:38;;;;;;;203.98;68.57;;;;;;;;;;5030642;28;20698;-44
2023/12/03 09:58:04;;;;;;;200.63;65.85;;;;;;;;;;5020401;28;20208;-45
2023/12/03 10:00:31;;;;;;;199.38;67.18;;;;;;;;;;5022887;28;20183;-44
2023/12/03 10:02:57;;;;;;;202.00;67.28;;;;;;;;;;5028230;28;20663;-44
2023/12/03 10:05:23;;;;;;;203.30;66.95;;;;;;;;;;5014453;28;20199;-44
2023/12/03 10:07:49;;;;;;;200.63;65.37;;;;;;;;;;5033524;28;20170;-45
2023/12/03 10:10:20;;;;;;;201.77;67.07;;;;;;;;;;5010847;28;20907;-45
2023/12/03 10:12:48;;;;;;;202.38;69.05;;;;;;;;;;5015036;28;20632;-44
2023/12/03 10:15:14;;;;;;;202.85;66.68;;;;;;;;;;5023742;28;20199;-43
2023/12/03 10:17:40;;;;;;;202.27;69.40;;;;;;;;;;5032731;28;20199;-44
2023/12/03 10:20:26;;;;;;;208.45;71.55;;;;;;;;;;5031484;28;20472;-43
2023/12/03 10:22:52;;;;;;;207.98;68.97;;;;;;;;;;5013742;28;20375;-43
2023/12/03 10:25:37;;;;;;;208.43;69.97;;;;;;;;;;4994182;28;20203;-44
2023/12/03 10:28:04;;;;;;;207.45;68.40;;;;;;;;;;5012325;28;20242;-44
2023/12/03 10:30:30;;;;;;;205.45;68.63;;;;;;;;;;4999407;28;20178;-43
2023/12/03 10:32:56;;;;;;;209.93;68.50;;;;;;;;;;5004410;28;20542;-44
2023/12/03 10:35:23;;;;;;;213.13;69.72;;;;;;;;;;5006573;28;20193;-44
2023/12/03 10:37:49;;;;;;;214.40;67.10;;;;;;;;;;4995758;28;20238;-43
2023/12/03 10:40:15;;;;;;;212.63;68.25;;;;;;;;;;5013248;28;20168;-44
2023/12/03 10:42:42;;;;;;;214.70;69.78;;;;;;;;;;5004617;28;20169;-43
2023/12/03 10:45:11;;;;;;;217.02;70.30;;;;;;;;;;5012181;28;20564;-44
2023/12/03 10:47:38;;;;;;;216.07;69.97;;;;;;;;;;5002283;28;20192;-44
2023/12/03 10:50:05;;;;;;;215.52;68.90;;;;;;;;;;4999864;28;20230;-44
2023/12/03 10:52:32;;;;;;;212.35;67.13;;;;;;;;;;5010046;28;20271;-44
2023/12/03 10:54:58;;;;;;;215.63;67.03;;;;;;;;;;4992913;28;20200;-44
2023/12/03 10:57:27;;;;;;;213.82;70.75;;;;;;;;;;5011497;28;20184;-43
2023/12/03 10:59:58;;;;;;;215.25;69.75;;;;;;;;;;4997801;28;20188;-45
2023/12/03 11:02:25;;;;;;;218.90;68.80;;;;;;;;;;5003699;28;20180;-44
2023/12/03 11:05:04;;;;;;;216.88;68.53;;;;;;;;;;5004709;28;20656;-43
2023/12/03 11:07:32;;;;;;;247.35;93.55;;;;;;;;;;4995524;28;20305;-44
2023/12/03 11:09:58;;;;;;;214.35;66.40;;;;;;;;;;5011166;28;20709;-44
2023/12/03 11:12:25;;;;;;;210.40;67.38;;;;;;;;;;5012500;28;20206;-43
2023/12/03 11:14:52;;;;;;;207.45;65.43;;;;;;;;;;5012248;28;20202;-44
2023/12/03 11:17:23;;;;;;;210.60;67.20;;;;;;;;;;5012243;28;20176;-44
2023/12/03 11:19:50;;;;;;;208.10;68.18;;;;;;;;;;5016647;28;20207;-43
2023/12/03 11:22:37;;;;;;;226.90;71.40;;;;;;;;;;5012079;28;20184;-43
2023/12/03 11:25:09;;;;;;;225.50;70.60;;;;;;;;;;5011844;28;20206;-43
2023/12/03 11:27:35;;;;;;;224.65;69.07;;;;;;;;;;5012040;28;20187;-43
2023/12/03 11:30:04;;;;;;;226.37;69.70;;;;;;;;;;5012118;28;20183;-44
2023/12/03 11:32:30;;;;;;;225.70;69.97;;;;;;;;;;5011921;28;20466;-43
2023/12/03 11:35:00;;;;;;;227.57;70.57;;;;;;;;;;5011805;28;20197;-43
2023/12/03 11:37:27;;;;;;;227.00;70.65;;;;;;;;;;5012090;28;20199;-44
2023/12/03 11:40:00;;;;;;;225.25;69.53;;;;;;;;;;5012095;28;20180;-44
2023/12/03 11:42:27;;;;;;;225.88;69.93;;;;;;;;;;5011937;28;20191;-43
2023/12/03 11:45:11;;;;;;;224.40;70.20;;;;;;;;;;5011599;28;20286;-43
2023/12/03 11:47:37;;;;;;;224.00;68.05;;;;;;;;;;5011950;28;20230;-44
2023/12/03 11:50:04;;;;;;;212.93;68.85;;;;;;;;;;5011895;28;20192;-43
2023/12/03 11:52:30;;;;;;;224.73;68.93;;;;;;;;;;5011816;28;20214;-43
2023/12/03 11:55:05;;;;;;;221.50;66.50;;;;;;;;;;5011537;28;20226;-44
2023/12/03 11:57:35;;;;;;;219.65;65.00;;;;;;;;;;5011156;28;20436;-43
2023/12/03 12:00:01;;;;;;;220.20;68.32;;;;;;;;;;5011719;28;20171;-44
2023/12/03 12:02:27;;;;;;;223.93;71.13;;;;;;;;;;5011915;28;20534;-43
2023/12/03 12:04:53;;;;;;;223.82;70.35;;;;;;;;;;5009048;28;20627;-43
2023/12/03 12:07:19;;;;;;;218.03;67.77;;;;;;;;;;5011221;28;20172;-43
2023/12/03 12:09:48;;;;;;;217.17;66.37;;;;;;;;;;5018784;28;20930;-44
2023/12/03 12:12:15;;;;;;;215.07;64.25;;;;;;;;;;5027921;28;20513;-43
2023/12/03 12:14:41;;;;;;;217.32;66.15;;;;;;;;;;5013399;28;20169;-43
2023/12/03 12:17:10;;;;;;;216.68;65.78;;;;;;;;;;5015984;28;20323;-43
2023/12/03 12:19:36;;;;;;;215.70;66.65;;;;;;;;;;5031089;28;20175;-43
2023/12/03 12:22:02;;;;;;;214.05;63.90;;;;;;;;;;5034642;28;20188;-43
2023/12/03 12:24:28;;;;;;;217.50;66.65;;;;;;;;;;5026728;28;20251;-43
2023/12/03 12:26:54;;;;;;;214.37;64.50;;;;;;;;;;5011920;28;20569;-43
2023/12/03 12:29:21;;;;;;;216.55;67.20;;;;;;;;;;4995784;28;20412;-44
2023/12/03 12:31:47;;;;;;;218.75;65.88;;;;;;;;;;5015148;28;20174;-43
2023/12/03 12:34:14;;;;;;;216.73;65.60;;;;;;;;;;5000154;28;20291;-44
2023/12/03 12:36:43;;;;;;;209.45;66.82;;;;;;;;;;5006515;28;20200;-43
2023/12/03 12:39:22;;;;;;;208.15;66.28;;;;;;;;;;5007696;28;20189;-44
2023/12/03 12:41:49;;;;;;;211.38;68.30;;;;;;;;;;5007378;28;20263;-43
2023/12/03 12:44:15;;;;;;;214.35;66.93;;;;;;;;;;5031521;23;20240;-46
2023/12/03 12:46:52;;;;;;;201.17;62.67;;;;;;;;;;5011016;28;20570;-44
2023/12/03 12:49:18;;;;;;;197.77;64.55;;;;;;;;;;5014390;28;20403;-45
2023/12/03 12:51:44;;;;;;;213.90;65.78;;;;;;;;;;5014560;28;20171;-44
2023/12/03 12:54:11;;;;;;;205.27;64.78;;;;;;;;;;5004300;28;20268;-44
2023/12/03 12:56:37;;;;;;;205.07;65.03;;;;;;;;;;5001574;28;20667;-44
2023/12/03 12:59:03;;;;;;;214.90;68.43;;;;;;;;;;5012351;28;20208;-44
2023/12/03 13:01:30;;;;;;;204.93;64.80;;;;;;;;;;4995359;28;20404;-44
2023/12/03 13:03:56;;;;;;;203.05;64.85;;;;;;;;;;5013349;28;20857;-44
2023/12/03 13:06:22;;;;;;;202.30;62.08;;;;;;;;;;5013529;28;20216;-44
2023/12/03 13:08:48;;;;;;;201.75;63.33;;;;;;;;;;5014244;28;20180;-43
2023/12/03 13:11:14;;;;;;;199.32;64.35;;;;;;;;;;5012328;28;20173;-44
2023/12/03 13:13:40;;;;;;;212.30;66.10;;;;;;;;;;5014367;28;20211;-46
2023/12/03 13:16:06;;;;;;;203.97;63.87;;;;;;;;;;5023979;28;20418;-44
2023/12/03 13:18:32;;;;;;;211.48;63.90;;;;;;;;;;5004667;28;20427;-44
2023/12/03 13:20:58;;;;;;;209.57;65.03;;;;;;;;;;5008516;28;20180;-45
2023/12/03 13:23:24;;;;;;;200.73;64.73;;;;;;;;;;4996174;28;20763;-44
2023/12/03 13:25:50;;;;;;;200.47;63.73;;;;;;;;;;5007786;28;20448;-44
2023/12/03 13:28:17;;;;;;;200.43;64.45;;;;;;;;;;4996360;28;20491;-44
2023/12/03 13:30:43;;;;;;;195.45;63.67;;;;;;;;;;5014413;28;20168;-44
2023/12/03 13:33:09;;;;;;;196.25;65.00;;;;;;;;;;5009868;28;20809;-44
2023/12/03 13:35:35;;;;;;;201.57;65.40;;;;;;;;;;5013439;28;20181;-44
2023/12/03 13:38:01;;;;;;;215.63;66.68;;;;;;;;;;5009377;28;20403;-44
2023/12/03 13:40:27;;;;;;;212.77;64.97;;;;;;;;;;5009084;28;20536;-44
2023/12/03 13:42:53;;;;;;;218.17;67.07;;;;;;;;;;5010006;28;20513;-44
2023/12/03 13:45:20;;;;;;;215.57;64.80;;;;;;;;;;5013624;28;20488;-44
2023/12/03 13:47:45;;;;;;;197.15;61.70;;;;;;;;;;5013396;28;20226;-44
2023/12/03 13:50:11;;;;;;;213.63;63.30;;;;;;;;;;5001425;28;20265;-45
2023/12/03 13:52:37;;;;;;;212.47;62.67;;;;;;;;;;5002785;28;20455;-45
2023/12/03 13:55:04;;;;;;;214.60;64.97;;;;;;;;;;5009006;28;20769;-44
2023/12/03 13:57:30;;;;;;;212.43;62.60;;;;;;;;;;4994706;28;20907;-44
2023/12/03 13:59:56;;;;;;;209.77;63.17;;;;;;;;;;5013862;28;20195;-44